sensor_id;sensor_type;location;lat;lon;timestamp;P1;durP1;ratioP1;P2;durP2;ratioP2
4758;SDS011;2393;50.560;12.636;2022-07-23T00:00:50;3.77;;;3.47;;
4758;SDS011;2393;50.560;12.636;2022-07-23T00:03:18;3.30;;;3.10;;
4758;SDS011;2393;50.560;12.636;2022-07-23T00:05:46;6.60;;;3.87;;
4758;SDS011;2393;50.560;12.636;2022-07-23T00:08:16;4.33;;;3.30;;
4758;SDS011;2393;50.560;12.636;2022-07-23T00:10:43;5.30;;;3.53;;
4758;SDS011;2393;50.560;12.636;2022-07-23T00:13:11;8.13;;;3.33;;
4758;SDS011;2393;50.560;12.636;2022-07-23T00:15:39;3.87;;;3.57;;
4758;SDS011;2393;50.560;12.636;2022-07-23T00:18:07;3.83;;;3.53;;
4758;SDS011;2393;50.560;12.636;2022-07-23T00:20:35;3.70;;;3.40;;
4758;SDS011;2393;50.560;12.636;2022-07-23T00:23:03;4.20;;;3.33;;
4758;SDS011;2393;50.560;12.636;2022-07-23T00:25:33;4.10;;;3.70;;
4758;SDS011;2393;50.560;12.636;2022-07-23T00:28:01;3.47;;;3.17;;
4758;SDS011;2393;50.560;12.636;2022-07-23T00:30:31;4.50;;;3.20;;
4758;SDS011;2393;50.560;12.636;2022-07-23T00:33:00;4.40;;;3.87;;
4758;SDS011;2393;50.560;12.636;2022-07-23T00:35:31;4.43;;;4.03;;
4758;SDS011;2393;50.560;12.636;2022-07-23T00:38:02;4.10;;;3.17;;
4758;SDS011;2393;50.560;12.636;2022-07-23T00:40:31;4.13;;;3.80;;
4758;SDS011;2393;50.560;12.636;2022-07-23T00:43:00;6.33;;;3.40;;
4758;SDS011;2393;50.560;12.636;2022-07-23T00:45:28;5.60;;;3.03;;
4758;SDS011;2393;50.560;12.636;2022-07-23T00:47:57;3.50;;;3.20;;
4758;SDS011;2393;50.560;12.636;2022-07-23T00:50:25;4.30;;;3.90;;
4758;SDS011;2393;50.560;12.636;2022-07-23T00:52:54;6.03;;;4.00;;
4758;SDS011;2393;50.560;12.636;2022-07-23T00:55:22;5.03;;;3.47;;
4758;SDS011;2393;50.560;12.636;2022-07-23T00:57:51;5.70;;;4.07;;
4758;SDS011;2393;50.560;12.636;2022-07-23T01:00:25;3.83;;;3.43;;
4758;SDS011;2393;50.560;12.636;2022-07-23T01:02:53;4.30;;;2.90;;
4758;SDS011;2393;50.560;12.636;2022-07-23T01:05:21;4.27;;;3.90;;
4758;SDS011;2393;50.560;12.636;2022-07-23T01:07:50;5.03;;;4.17;;
4758;SDS011;2393;50.560;12.636;2022-07-23T01:10:21;4.60;;;4.20;;
4758;SDS011;2393;50.560;12.636;2022-07-23T01:13:00;4.50;;;4.10;;
4758;SDS011;2393;50.560;12.636;2022-07-23T01:15:30;6.03;;;3.67;;
4758;SDS011;2393;50.560;12.636;2022-07-23T01:17:58;3.27;;;3.03;;
4758;SDS011;2393;50.560;12.636;2022-07-23T01:20:27;3.43;;;3.13;;
4758;SDS011;2393;50.560;12.636;2022-07-23T01:22:57;3.67;;;3.37;;
4758;SDS011;2393;50.560;12.636;2022-07-23T01:25:26;5.03;;;3.37;;
4758;SDS011;2393;50.560;12.636;2022-07-23T01:28:00;4.93;;;4.10;;
4758;SDS011;2393;50.560;12.636;2022-07-23T01:30:28;4.70;;;4.17;;
4758;SDS011;2393;50.560;12.636;2022-07-23T01:32:58;6.50;;;4.60;;
4758;SDS011;2393;50.560;12.636;2022-07-23T01:35:26;4.53;;;4.10;;
4758;SDS011;2393;50.560;12.636;2022-07-23T01:38:00;6.43;;;3.93;;
4758;SDS011;2393;50.560;12.636;2022-07-23T01:40:31;5.70;;;3.73;;
4758;SDS011;2393;50.560;12.636;2022-07-23T01:42:59;4.10;;;3.80;;
4758;SDS011;2393;50.560;12.636;2022-07-23T01:45:29;3.73;;;3.40;;
4758;SDS011;2393;50.560;12.636;2022-07-23T01:47:57;4.50;;;4.10;;
4758;SDS011;2393;50.560;12.636;2022-07-23T01:50:25;4.93;;;4.37;;
4758;SDS011;2393;50.560;12.636;2022-07-23T01:53:17;4.87;;;4.40;;
4758;SDS011;2393;50.560;12.636;2022-07-23T01:55:45;4.43;;;4.03;;
4758;SDS011;2393;50.560;12.636;2022-07-23T01:58:13;4.43;;;4.03;;
4758;SDS011;2393;50.560;12.636;2022-07-23T02:00:41;4.00;;;3.70;;
4758;SDS011;2393;50.560;12.636;2022-07-23T02:03:09;4.80;;;4.07;;
4758;SDS011;2393;50.560;12.636;2022-07-23T02:05:37;5.77;;;4.10;;
4758;SDS011;2393;50.560;12.636;2022-07-23T02:08:05;5.03;;;3.60;;
4758;SDS011;2393;50.560;12.636;2022-07-23T02:10:37;3.80;;;3.50;;
4758;SDS011;2393;50.560;12.636;2022-07-23T02:13:05;6.90;;;4.97;;
4758;SDS011;2393;50.560;12.636;2022-07-23T02:15:33;4.27;;;3.87;;
4758;SDS011;2393;50.560;12.636;2022-07-23T02:18:02;5.53;;;4.90;;
4758;SDS011;2393;50.560;12.636;2022-07-23T02:20:30;4.83;;;4.03;;
4758;SDS011;2393;50.560;12.636;2022-07-23T02:22:58;5.93;;;4.50;;
4758;SDS011;2393;50.560;12.636;2022-07-23T02:25:27;5.00;;;4.17;;
4758;SDS011;2393;50.560;12.636;2022-07-23T02:28:01;5.20;;;4.40;;
4758;SDS011;2393;50.560;12.636;2022-07-23T02:30:30;5.10;;;4.67;;
4758;SDS011;2393;50.560;12.636;2022-07-23T02:32:58;8.00;;;5.00;;
4758;SDS011;2393;50.560;12.636;2022-07-23T02:35:26;4.80;;;4.13;;
4758;SDS011;2393;50.560;12.636;2022-07-23T02:37:57;4.20;;;3.83;;
4758;SDS011;2393;50.560;12.636;2022-07-23T02:40:26;4.97;;;4.00;;
4758;SDS011;2393;50.560;12.636;2022-07-23T02:42:54;6.20;;;4.90;;
4758;SDS011;2393;50.560;12.636;2022-07-23T02:45:25;4.90;;;4.50;;
4758;SDS011;2393;50.560;12.636;2022-07-23T02:47:54;5.40;;;4.40;;
4758;SDS011;2393;50.560;12.636;2022-07-23T02:50:22;7.10;;;4.07;;
4758;SDS011;2393;50.560;12.636;2022-07-23T02:52:53;4.93;;;4.53;;
4758;SDS011;2393;50.560;12.636;2022-07-23T02:55:23;14.20;;;5.07;;
4758;SDS011;2393;50.560;12.636;2022-07-23T02:57:52;5.90;;;4.07;;
4758;SDS011;2393;50.560;12.636;2022-07-23T03:00:20;6.67;;;4.67;;
4758;SDS011;2393;50.560;12.636;2022-07-23T03:02:49;6.33;;;4.97;;
4758;SDS011;2393;50.560;12.636;2022-07-23T03:05:18;5.27;;;4.77;;
4758;SDS011;2393;50.560;12.636;2022-07-23T03:07:46;5.50;;;4.80;;
4758;SDS011;2393;50.560;12.636;2022-07-23T03:10:14;4.93;;;4.40;;
4758;SDS011;2393;50.560;12.636;2022-07-23T03:12:43;5.57;;;4.97;;
4758;SDS011;2393;50.560;12.636;2022-07-23T03:15:11;5.53;;;4.90;;
4758;SDS011;2393;50.560;12.636;2022-07-23T03:17:40;5.50;;;4.20;;
4758;SDS011;2393;50.560;12.636;2022-07-23T03:20:09;7.20;;;4.80;;
4758;SDS011;2393;50.560;12.636;2022-07-23T03:22:38;6.53;;;4.63;;
4758;SDS011;2393;50.560;12.636;2022-07-23T03:25:06;6.07;;;5.47;;
4758;SDS011;2393;50.560;12.636;2022-07-23T03:27:35;6.67;;;4.40;;
4758;SDS011;2393;50.560;12.636;2022-07-23T03:30:04;4.83;;;4.30;;
4758;SDS011;2393;50.560;12.636;2022-07-23T03:32:33;5.13;;;4.33;;
4758;SDS011;2393;50.560;12.636;2022-07-23T03:35:01;4.83;;;4.43;;
4758;SDS011;2393;50.560;12.636;2022-07-23T03:37:33;6.10;;;4.43;;
4758;SDS011;2393;50.560;12.636;2022-07-23T03:40:02;5.10;;;4.37;;
4758;SDS011;2393;50.560;12.636;2022-07-23T03:42:30;5.00;;;4.50;;
4758;SDS011;2393;50.560;12.636;2022-07-23T03:44:58;5.20;;;4.70;;
4758;SDS011;2393;50.560;12.636;2022-07-23T03:47:26;9.73;;;5.00;;
4758;SDS011;2393;50.560;12.636;2022-07-23T03:49:54;5.33;;;4.83;;
4758;SDS011;2393;50.560;12.636;2022-07-23T03:52:23;4.10;;;3.80;;
4758;SDS011;2393;50.560;12.636;2022-07-23T03:54:53;8.13;;;4.43;;
4758;SDS011;2393;50.560;12.636;2022-07-23T03:57:22;6.00;;;5.47;;
4758;SDS011;2393;50.560;12.636;2022-07-23T03:59:50;10.00;;;5.20;;
4758;SDS011;2393;50.560;12.636;2022-07-23T04:02:18;5.10;;;4.60;;
4758;SDS011;2393;50.560;12.636;2022-07-23T04:04:46;5.73;;;4.77;;
4758;SDS011;2393;50.560;12.636;2022-07-23T04:07:15;5.50;;;5.00;;
4758;SDS011;2393;50.560;12.636;2022-07-23T04:09:44;5.67;;;5.00;;
4758;SDS011;2393;50.560;12.636;2022-07-23T04:12:13;5.33;;;4.10;;
4758;SDS011;2393;50.560;12.636;2022-07-23T04:14:42;4.87;;;4.40;;
4758;SDS011;2393;50.560;12.636;2022-07-23T04:17:10;5.50;;;5.03;;
4758;SDS011;2393;50.560;12.636;2022-07-23T04:19:39;5.87;;;5.00;;
4758;SDS011;2393;50.560;12.636;2022-07-23T04:22:08;5.07;;;4.63;;
4758;SDS011;2393;50.560;12.636;2022-07-23T04:24:37;6.57;;;4.40;;
4758;SDS011;2393;50.560;12.636;2022-07-23T04:27:07;4.97;;;4.50;;
4758;SDS011;2393;50.560;12.636;2022-07-23T04:29:37;5.43;;;4.43;;
4758;SDS011;2393;50.560;12.636;2022-07-23T04:32:05;5.03;;;4.20;;
4758;SDS011;2393;50.560;12.636;2022-07-23T04:34:33;5.77;;;4.83;;
4758;SDS011;2393;50.560;12.636;2022-07-23T04:37:01;5.27;;;4.70;;
4758;SDS011;2393;50.560;12.636;2022-07-23T04:39:31;5.20;;;4.70;;
4758;SDS011;2393;50.560;12.636;2022-07-23T04:41:59;5.67;;;5.07;;
4758;SDS011;2393;50.560;12.636;2022-07-23T04:44:29;8.80;;;5.83;;
4758;SDS011;2393;50.560;12.636;2022-07-23T04:46:59;8.50;;;5.80;;
4758;SDS011;2393;50.560;12.636;2022-07-23T04:49:27;7.47;;;5.57;;
4758;SDS011;2393;50.560;12.636;2022-07-23T04:51:55;7.70;;;5.93;;
4758;SDS011;2393;50.560;12.636;2022-07-23T04:54:23;6.10;;;5.50;;
4758;SDS011;2393;50.560;12.636;2022-07-23T04:56:51;6.33;;;5.67;;
4758;SDS011;2393;50.560;12.636;2022-07-23T04:59:19;6.73;;;5.60;;
4758;SDS011;2393;50.560;12.636;2022-07-23T05:01:54;7.83;;;6.10;;
4758;SDS011;2393;50.560;12.636;2022-07-23T05:04:23;9.83;;;7.20;;
4758;SDS011;2393;50.560;12.636;2022-07-23T05:06:51;10.00;;;7.23;;
4758;SDS011;2393;50.560;12.636;2022-07-23T05:09:20;11.90;;;7.50;;
4758;SDS011;2393;50.560;12.636;2022-07-23T05:11:48;17.27;;;8.63;;
4758;SDS011;2393;50.560;12.636;2022-07-23T05:14:16;10.90;;;7.97;;
4758;SDS011;2393;50.560;12.636;2022-07-23T05:16:44;11.30;;;7.50;;
4758;SDS011;2393;50.560;12.636;2022-07-23T05:19:19;13.73;;;8.70;;
4758;SDS011;2393;50.560;12.636;2022-07-23T05:21:52;14.77;;;9.87;;
4758;SDS011;2393;50.560;12.636;2022-07-23T05:24:20;9.77;;;8.10;;
4758;SDS011;2393;50.560;12.636;2022-07-23T05:26:49;11.90;;;7.30;;
4758;SDS011;2393;50.560;12.636;2022-07-23T05:29:18;12.30;;;8.80;;
4758;SDS011;2393;50.560;12.636;2022-07-23T05:31:46;12.93;;;9.13;;
4758;SDS011;2393;50.560;12.636;2022-07-23T05:34:15;11.03;;;9.07;;
4758;SDS011;2393;50.560;12.636;2022-07-23T05:36:45;10.80;;;8.90;;
4758;SDS011;2393;50.560;12.636;2022-07-23T05:39:16;13.23;;;9.13;;
4758;SDS011;2393;50.560;12.636;2022-07-23T05:41:45;12.40;;;8.10;;
4758;SDS011;2393;50.560;12.636;2022-07-23T05:44:13;24.63;;;8.20;;
4758;SDS011;2393;50.560;12.636;2022-07-23T05:46:43;11.30;;;8.80;;
4758;SDS011;2393;50.560;12.636;2022-07-23T05:49:16;10.60;;;7.27;;
4758;SDS011;2393;50.560;12.636;2022-07-23T05:52:15;10.73;;;7.53;;
4758;SDS011;2393;50.560;12.636;2022-07-23T05:55:04;12.13;;;8.37;;
4758;SDS011;2393;50.560;12.636;2022-07-23T05:57:33;11.70;;;7.93;;
4758;SDS011;2393;50.560;12.636;2022-07-23T06:00:01;12.63;;;8.73;;
4758;SDS011;2393;50.560;12.636;2022-07-23T06:02:39;9.93;;;7.30;;
4758;SDS011;2393;50.560;12.636;2022-07-23T06:05:09;10.60;;;7.50;;
4758;SDS011;2393;50.560;12.636;2022-07-23T06:07:38;14.33;;;9.07;;
4758;SDS011;2393;50.560;12.636;2022-07-23T06:10:08;13.77;;;8.70;;
4758;SDS011;2393;50.560;12.636;2022-07-23T06:12:36;10.37;;;7.43;;
4758;SDS011;2393;50.560;12.636;2022-07-23T06:15:05;11.70;;;8.17;;
4758;SDS011;2393;50.560;12.636;2022-07-23T06:17:37;12.20;;;8.70;;
4758;SDS011;2393;50.560;12.636;2022-07-23T06:20:06;17.37;;;8.90;;
4758;SDS011;2393;50.560;12.636;2022-07-23T06:22:37;11.07;;;7.10;;
4758;SDS011;2393;50.560;12.636;2022-07-23T06:25:06;16.43;;;8.63;;
4758;SDS011;2393;50.560;12.636;2022-07-23T06:27:44;11.07;;;7.97;;
4758;SDS011;2393;50.560;12.636;2022-07-23T06:30:13;10.60;;;8.73;;
4758;SDS011;2393;50.560;12.636;2022-07-23T06:32:44;15.13;;;7.80;;
4758;SDS011;2393;50.560;12.636;2022-07-23T06:35:13;8.70;;;6.67;;
4758;SDS011;2393;50.560;12.636;2022-07-23T06:37:41;10.83;;;7.83;;
4758;SDS011;2393;50.560;12.636;2022-07-23T06:40:13;16.13;;;10.83;;
4758;SDS011;2393;50.560;12.636;2022-07-23T06:42:41;17.13;;;10.03;;
4758;SDS011;2393;50.560;12.636;2022-07-23T06:45:15;9.70;;;7.57;;
4758;SDS011;2393;50.560;12.636;2022-07-23T06:47:46;14.33;;;8.83;;
4758;SDS011;2393;50.560;12.636;2022-07-23T06:50:14;11.83;;;7.90;;
4758;SDS011;2393;50.560;12.636;2022-07-23T06:52:42;9.67;;;7.97;;
4758;SDS011;2393;50.560;12.636;2022-07-23T06:55:10;17.50;;;9.93;;
4758;SDS011;2393;50.560;12.636;2022-07-23T06:57:40;12.60;;;8.90;;
4758;SDS011;2393;50.560;12.636;2022-07-23T07:00:08;11.77;;;8.30;;
4758;SDS011;2393;50.560;12.636;2022-07-23T07:02:37;11.93;;;9.03;;
4758;SDS011;2393;50.560;12.636;2022-07-23T07:05:06;15.63;;;10.27;;
4758;SDS011;2393;50.560;12.636;2022-07-23T07:07:34;17.07;;;11.17;;
4758;SDS011;2393;50.560;12.636;2022-07-23T07:10:03;15.50;;;10.50;;
4758;SDS011;2393;50.560;12.636;2022-07-23T07:12:31;13.20;;;9.27;;
4758;SDS011;2393;50.560;12.636;2022-07-23T07:15:00;14.23;;;9.90;;
4758;SDS011;2393;50.560;12.636;2022-07-23T07:17:28;13.67;;;9.57;;
4758;SDS011;2393;50.560;12.636;2022-07-23T07:19:57;20.67;;;11.90;;
4758;SDS011;2393;50.560;12.636;2022-07-23T07:22:25;18.57;;;11.87;;
4758;SDS011;2393;50.560;12.636;2022-07-23T07:24:53;16.87;;;10.87;;
4758;SDS011;2393;50.560;12.636;2022-07-23T07:27:21;18.83;;;11.17;;
4758;SDS011;2393;50.560;12.636;2022-07-23T07:29:49;14.30;;;10.07;;
4758;SDS011;2393;50.560;12.636;2022-07-23T07:32:18;20.37;;;10.83;;
4758;SDS011;2393;50.560;12.636;2022-07-23T07:35:07;16.27;;;10.97;;
4758;SDS011;2393;50.560;12.636;2022-07-23T07:37:35;13.80;;;9.27;;
4758;SDS011;2393;50.560;12.636;2022-07-23T07:40:04;15.30;;;11.00;;
4758;SDS011;2393;50.560;12.636;2022-07-23T07:42:33;16.70;;;11.30;;
4758;SDS011;2393;50.560;12.636;2022-07-23T07:45:01;16.43;;;11.03;;
4758;SDS011;2393;50.560;12.636;2022-07-23T07:47:31;15.90;;;10.80;;
4758;SDS011;2393;50.560;12.636;2022-07-23T07:49:59;18.77;;;10.90;;
4758;SDS011;2393;50.560;12.636;2022-07-23T07:52:29;16.90;;;10.20;;
4758;SDS011;2393;50.560;12.636;2022-07-23T07:54:57;18.23;;;10.37;;
4758;SDS011;2393;50.560;12.636;2022-07-23T07:57:26;17.13;;;10.83;;
4758;SDS011;2393;50.560;12.636;2022-07-23T07:59:57;16.80;;;9.10;;
4758;SDS011;2393;50.560;12.636;2022-07-23T08:02:42;14.73;;;10.63;;
4758;SDS011;2393;50.560;12.636;2022-07-23T08:05:12;18.23;;;9.60;;
4758;SDS011;2393;50.560;12.636;2022-07-23T08:07:40;15.20;;;11.40;;
4758;SDS011;2393;50.560;12.636;2022-07-23T08:10:09;15.50;;;11.00;;
4758;SDS011;2393;50.560;12.636;2022-07-23T08:12:37;15.87;;;11.63;;
4758;SDS011;2393;50.560;12.636;2022-07-23T08:15:07;13.93;;;8.60;;
4758;SDS011;2393;50.560;12.636;2022-07-23T08:17:39;13.33;;;10.13;;
4758;SDS011;2393;50.560;12.636;2022-07-23T08:20:10;10.87;;;9.00;;
4758;SDS011;2393;50.560;12.636;2022-07-23T08:22:46;13.90;;;9.77;;
4758;SDS011;2393;50.560;12.636;2022-07-23T08:25:19;15.50;;;11.40;;
4758;SDS011;2393;50.560;12.636;2022-07-23T08:27:48;14.20;;;10.27;;
4758;SDS011;2393;50.560;12.636;2022-07-23T08:30:16;11.10;;;9.40;;
4758;SDS011;2393;50.560;12.636;2022-07-23T08:32:50;15.00;;;9.40;;
4758;SDS011;2393;50.560;12.636;2022-07-23T08:35:25;13.70;;;10.10;;
4758;SDS011;2393;50.560;12.636;2022-07-23T08:37:56;10.57;;;8.27;;
4758;SDS011;2393;50.560;12.636;2022-07-23T08:40:25;16.00;;;9.23;;
4758;SDS011;2393;50.560;12.636;2022-07-23T08:42:54;10.57;;;8.47;;
4758;SDS011;2393;50.560;12.636;2022-07-23T08:45:22;17.83;;;9.40;;
4758;SDS011;2393;50.560;12.636;2022-07-23T08:47:52;9.73;;;7.83;;
4758;SDS011;2393;50.560;12.636;2022-07-23T08:50:23;11.83;;;8.27;;
4758;SDS011;2393;50.560;12.636;2022-07-23T08:52:53;12.10;;;8.57;;
4758;SDS011;2393;50.560;12.636;2022-07-23T08:55:24;11.93;;;9.77;;
4758;SDS011;2393;50.560;12.636;2022-07-23T08:57:52;10.67;;;8.43;;
4758;SDS011;2393;50.560;12.636;2022-07-23T09:00:21;8.87;;;7.60;;
4758;SDS011;2393;50.560;12.636;2022-07-23T09:02:49;11.77;;;8.77;;
4758;SDS011;2393;50.560;12.636;2022-07-23T09:05:21;8.40;;;7.20;;
4758;SDS011;2393;50.560;12.636;2022-07-23T09:08:07;9.83;;;7.17;;
4758;SDS011;2393;50.560;12.636;2022-07-23T09:10:47;10.53;;;7.97;;
4758;SDS011;2393;50.560;12.636;2022-07-23T09:13:24;11.27;;;8.00;;
4758;SDS011;2393;50.560;12.636;2022-07-23T09:15:57;9.20;;;7.83;;
4758;SDS011;2393;50.560;12.636;2022-07-23T09:18:30;10.83;;;8.20;;
4758;SDS011;2393;50.560;12.636;2022-07-23T09:21:09;6.90;;;6.20;;
4758;SDS011;2393;50.560;12.636;2022-07-23T09:23:41;11.30;;;6.73;;
4758;SDS011;2393;50.560;12.636;2022-07-23T09:26:21;8.57;;;7.40;;
4758;SDS011;2393;50.560;12.636;2022-07-23T09:28:58;6.80;;;6.20;;
4758;SDS011;2393;50.560;12.636;2022-07-23T09:31:41;12.77;;;7.30;;
4758;SDS011;2393;50.560;12.636;2022-07-23T09:34:14;10.30;;;7.30;;
4758;SDS011;2393;50.560;12.636;2022-07-23T09:36:44;8.40;;;7.30;;
4758;SDS011;2393;50.560;12.636;2022-07-23T09:39:15;6.50;;;5.80;;
4758;SDS011;2393;50.560;12.636;2022-07-23T09:41:45;8.63;;;7.17;;
4758;SDS011;2393;50.560;12.636;2022-07-23T09:44:14;8.63;;;6.87;;
4758;SDS011;2393;50.560;12.636;2022-07-23T09:46:44;8.60;;;6.70;;
4758;SDS011;2393;50.560;12.636;2022-07-23T09:49:17;8.57;;;7.70;;
4758;SDS011;2393;50.560;12.636;2022-07-23T09:51:48;7.93;;;6.73;;
4758;SDS011;2393;50.560;12.636;2022-07-23T09:54:24;9.33;;;7.40;;
4758;SDS011;2393;50.560;12.636;2022-07-23T09:57:01;9.27;;;7.63;;
4758;SDS011;2393;50.560;12.636;2022-07-23T09:59:32;8.53;;;7.40;;
4758;SDS011;2393;50.560;12.636;2022-07-23T10:02:02;10.60;;;7.43;;
4758;SDS011;2393;50.560;12.636;2022-07-23T10:04:39;9.30;;;7.73;;
4758;SDS011;2393;50.560;12.636;2022-07-23T10:07:21;12.37;;;7.63;;
4758;SDS011;2393;50.560;12.636;2022-07-23T10:10:10;8.43;;;7.53;;
4758;SDS011;2393;50.560;12.636;2022-07-23T10:12:58;8.53;;;7.37;;
4758;SDS011;2393;50.560;12.636;2022-07-23T10:15:47;10.00;;;7.83;;
4758;SDS011;2393;50.560;12.636;2022-07-23T10:18:17;9.00;;;6.90;;
4758;SDS011;2393;50.560;12.636;2022-07-23T10:20:45;8.13;;;6.90;;
4758;SDS011;2393;50.560;12.636;2022-07-23T10:23:17;8.30;;;7.07;;
4758;SDS011;2393;50.560;12.636;2022-07-23T10:25:55;8.20;;;7.37;;
4758;SDS011;2393;50.560;12.636;2022-07-23T10:28:37;13.57;;;7.67;;
4758;SDS011;2393;50.560;12.636;2022-07-23T10:31:15;9.53;;;7.10;;
4758;SDS011;2393;50.560;12.636;2022-07-23T10:34:14;10.70;;;7.90;;
4758;SDS011;2393;50.560;12.636;2022-07-23T10:36:49;10.77;;;7.10;;
4758;SDS011;2393;50.560;12.636;2022-07-23T10:39:22;9.53;;;7.00;;
4758;SDS011;2393;50.560;12.636;2022-07-23T10:41:53;8.67;;;7.23;;
4758;SDS011;2393;50.560;12.636;2022-07-23T10:44:37;8.67;;;6.93;;
4758;SDS011;2393;50.560;12.636;2022-07-23T10:47:07;10.67;;;7.70;;
4758;SDS011;2393;50.560;12.636;2022-07-23T10:49:50;10.00;;;6.87;;
4758;SDS011;2393;50.560;12.636;2022-07-23T10:52:19;9.83;;;7.00;;
4758;SDS011;2393;50.560;12.636;2022-07-23T10:58:08;14.83;;;7.33;;
4758;SDS011;2393;50.560;12.636;2022-07-23T11:00:36;9.23;;;7.30;;
4758;SDS011;2393;50.560;12.636;2022-07-23T11:03:27;11.60;;;7.47;;
4758;SDS011;2393;50.560;12.636;2022-07-23T11:06:03;10.63;;;7.43;;
4758;SDS011;2393;50.560;12.636;2022-07-23T11:08:33;10.90;;;6.70;;
4758;SDS011;2393;50.560;12.636;2022-07-23T11:11:09;8.87;;;6.87;;
4758;SDS011;2393;50.560;12.636;2022-07-23T11:13:45;8.63;;;7.27;;
4758;SDS011;2393;50.560;12.636;2022-07-23T11:16:24;7.50;;;6.20;;
4758;SDS011;2393;50.560;12.636;2022-07-23T11:18:57;10.97;;;7.13;;
4758;SDS011;2393;50.560;12.636;2022-07-23T11:21:50;7.83;;;6.27;;
4758;SDS011;2393;50.560;12.636;2022-07-23T11:24:20;9.40;;;7.20;;
4758;SDS011;2393;50.560;12.636;2022-07-23T11:26:55;8.90;;;6.97;;
4758;SDS011;2393;50.560;12.636;2022-07-23T11:32:22;9.47;;;5.83;;
4758;SDS011;2393;50.560;12.636;2022-07-23T11:35:19;7.13;;;6.27;;
4758;SDS011;2393;50.560;12.636;2022-07-23T11:37:52;9.80;;;6.00;;
4758;SDS011;2393;50.560;12.636;2022-07-23T11:40:25;10.43;;;6.03;;
4758;SDS011;2393;50.560;12.636;2022-07-23T11:42:56;8.10;;;5.50;;
4758;SDS011;2393;50.560;12.636;2022-07-23T11:45:30;10.27;;;6.30;;
4758;SDS011;2393;50.560;12.636;2022-07-23T11:48:00;6.00;;;5.37;;
4758;SDS011;2393;50.560;12.636;2022-07-23T11:50:29;9.33;;;6.27;;
4758;SDS011;2393;50.560;12.636;2022-07-23T11:52:57;6.90;;;5.37;;
4758;SDS011;2393;50.560;12.636;2022-07-23T11:55:25;7.87;;;5.50;;
4758;SDS011;2393;50.560;12.636;2022-07-23T11:57:56;5.97;;;5.37;;
4758;SDS011;2393;50.560;12.636;2022-07-23T12:00:26;10.90;;;6.43;;
4758;SDS011;2393;50.560;12.636;2022-07-23T12:02:57;7.10;;;6.40;;
4758;SDS011;2393;50.560;12.636;2022-07-23T12:05:27;9.23;;;6.60;;
4758;SDS011;2393;50.560;12.636;2022-07-23T12:07:57;7.30;;;6.00;;
4758;SDS011;2393;50.560;12.636;2022-07-23T12:10:29;8.67;;;6.10;;
4758;SDS011;2393;50.560;12.636;2022-07-23T12:13:02;6.83;;;5.17;;
4758;SDS011;2393;50.560;12.636;2022-07-23T12:15:32;7.40;;;5.67;;
4758;SDS011;2393;50.560;12.636;2022-07-23T12:18:05;7.17;;;5.67;;
4758;SDS011;2393;50.560;12.636;2022-07-23T12:20:35;8.30;;;6.00;;
4758;SDS011;2393;50.560;12.636;2022-07-23T12:23:07;7.40;;;6.10;;
4758;SDS011;2393;50.560;12.636;2022-07-23T12:25:38;7.20;;;5.53;;
4758;SDS011;2393;50.560;12.636;2022-07-23T12:28:10;7.67;;;5.50;;
4758;SDS011;2393;50.560;12.636;2022-07-23T12:30:40;10.77;;;5.23;;
4758;SDS011;2393;50.560;12.636;2022-07-23T12:33:09;7.00;;;5.60;;
4758;SDS011;2393;50.560;12.636;2022-07-23T12:35:39;9.37;;;5.13;;
4758;SDS011;2393;50.560;12.636;2022-07-23T12:38:09;6.47;;;5.87;;
4758;SDS011;2393;50.560;12.636;2022-07-23T12:40:41;5.90;;;5.30;;
4758;SDS011;2393;50.560;12.636;2022-07-23T12:43:18;6.47;;;5.90;;
4758;SDS011;2393;50.560;12.636;2022-07-23T12:45:49;8.73;;;5.97;;
4758;SDS011;2393;50.560;12.636;2022-07-23T12:48:19;5.93;;;5.40;;
4758;SDS011;2393;50.560;12.636;2022-07-23T12:50:53;6.50;;;5.83;;
4758;SDS011;2393;50.560;12.636;2022-07-23T12:53:24;6.87;;;4.90;;
4758;SDS011;2393;50.560;12.636;2022-07-23T12:55:59;5.43;;;4.93;;
4758;SDS011;2393;50.560;12.636;2022-07-23T12:58:50;6.30;;;5.13;;
4758;SDS011;2393;50.560;12.636;2022-07-23T13:01:23;6.00;;;4.60;;
4758;SDS011;2393;50.560;12.636;2022-07-23T13:03:57;5.10;;;4.63;;
4758;SDS011;2393;50.560;12.636;2022-07-23T13:06:28;9.30;;;6.37;;
4758;SDS011;2393;50.560;12.636;2022-07-23T13:08:58;5.77;;;4.57;;
4758;SDS011;2393;50.560;12.636;2022-07-23T13:11:28;5.43;;;4.90;;
4758;SDS011;2393;50.560;12.636;2022-07-23T13:13:58;5.77;;;5.17;;
4758;SDS011;2393;50.560;12.636;2022-07-23T13:16:28;7.23;;;5.03;;
4758;SDS011;2393;50.560;12.636;2022-07-23T13:18:56;10.33;;;5.57;;
4758;SDS011;2393;50.560;12.636;2022-07-23T13:21:25;6.23;;;5.60;;
4758;SDS011;2393;50.560;12.636;2022-07-23T13:23:54;5.63;;;4.87;;
4758;SDS011;2393;50.560;12.636;2022-07-23T13:26:22;6.33;;;5.00;;
4758;SDS011;2393;50.560;12.636;2022-07-23T13:28:51;16.10;;;5.83;;
4758;SDS011;2393;50.560;12.636;2022-07-23T13:31:21;8.93;;;5.10;;
4758;SDS011;2393;50.560;12.636;2022-07-23T13:33:50;8.43;;;5.67;;
4758;SDS011;2393;50.560;12.636;2022-07-23T13:36:18;7.53;;;6.00;;
4758;SDS011;2393;50.560;12.636;2022-07-23T13:38:46;6.27;;;5.50;;
4758;SDS011;2393;50.560;12.636;2022-07-23T13:41:15;7.57;;;4.97;;
4758;SDS011;2393;50.560;12.636;2022-07-23T13:43:44;6.63;;;5.23;;
4758;SDS011;2393;50.560;12.636;2022-07-23T13:46:13;6.47;;;5.87;;
4758;SDS011;2393;50.560;12.636;2022-07-23T13:48:42;7.40;;;6.63;;
4758;SDS011;2393;50.560;12.636;2022-07-23T13:51:11;5.77;;;5.27;;
4758;SDS011;2393;50.560;12.636;2022-07-23T13:53:39;9.33;;;6.30;;
4758;SDS011;2393;50.560;12.636;2022-07-23T13:56:07;17.90;;;6.70;;
4758;SDS011;2393;50.560;12.636;2022-07-23T13:58:35;15.33;;;7.23;;
4758;SDS011;2393;50.560;12.636;2022-07-23T14:01:04;8.40;;;7.07;;
4758;SDS011;2393;50.560;12.636;2022-07-23T14:03:32;5.90;;;5.30;;
4758;SDS011;2393;50.560;12.636;2022-07-23T14:06:02;12.23;;;7.43;;
4758;SDS011;2393;50.560;12.636;2022-07-23T14:08:43;10.37;;;6.50;;
4758;SDS011;2393;50.560;12.636;2022-07-23T14:11:13;7.40;;;5.93;;
4758;SDS011;2393;50.560;12.636;2022-07-23T14:13:41;8.63;;;5.63;;
4758;SDS011;2393;50.560;12.636;2022-07-23T14:16:09;7.47;;;6.00;;
4758;SDS011;2393;50.560;12.636;2022-07-23T14:18:38;17.73;;;6.90;;
4758;SDS011;2393;50.560;12.636;2022-07-23T14:21:08;8.63;;;6.80;;
4758;SDS011;2393;50.560;12.636;2022-07-23T14:23:36;9.73;;;6.13;;
4758;SDS011;2393;50.560;12.636;2022-07-23T14:26:05;12.53;;;6.47;;
4758;SDS011;2393;50.560;12.636;2022-07-23T14:28:33;7.90;;;7.10;;
4758;SDS011;2393;50.560;12.636;2022-07-23T14:31:02;8.80;;;6.43;;
4758;SDS011;2393;50.560;12.636;2022-07-23T14:33:31;10.73;;;7.00;;
4758;SDS011;2393;50.560;12.636;2022-07-23T14:36:00;7.90;;;6.67;;
4758;SDS011;2393;50.560;12.636;2022-07-23T14:38:30;6.80;;;6.10;;
4758;SDS011;2393;50.560;12.636;2022-07-23T14:40:58;11.13;;;6.90;;
4758;SDS011;2393;50.560;12.636;2022-07-23T14:43:26;8.50;;;7.13;;
4758;SDS011;2393;50.560;12.636;2022-07-23T14:45:54;8.20;;;6.57;;
4758;SDS011;2393;50.560;12.636;2022-07-23T14:48:23;9.40;;;7.97;;
4758;SDS011;2393;50.560;12.636;2022-07-23T14:50:51;8.57;;;7.67;;
4758;SDS011;2393;50.560;12.636;2022-07-23T14:53:19;10.33;;;7.50;;
4758;SDS011;2393;50.560;12.636;2022-07-23T14:55:52;9.50;;;8.20;;
4758;SDS011;2393;50.560;12.636;2022-07-23T14:58:21;17.13;;;9.50;;
4758;SDS011;2393;50.560;12.636;2022-07-23T15:00:49;10.93;;;8.90;;
4758;SDS011;2393;50.560;12.636;2022-07-23T15:03:17;11.87;;;9.53;;
4758;SDS011;2393;50.560;12.636;2022-07-23T15:05:46;14.50;;;9.97;;
4758;SDS011;2393;50.560;12.636;2022-07-23T15:08:14;16.53;;;10.57;;
4758;SDS011;2393;50.560;12.636;2022-07-23T15:10:49;11.33;;;9.40;;
4758;SDS011;2393;50.560;12.636;2022-07-23T15:13:18;13.63;;;11.20;;
4758;SDS011;2393;50.560;12.636;2022-07-23T15:15:47;11.73;;;9.60;;
4758;SDS011;2393;50.560;12.636;2022-07-23T15:18:20;16.13;;;11.10;;
4758;SDS011;2393;50.560;12.636;2022-07-23T15:20:48;12.03;;;10.73;;
4758;SDS011;2393;50.560;12.636;2022-07-23T15:23:17;11.50;;;9.90;;